Windham, NH

10:29 AM EDT on August 26, 2016 (GMT -0400)
APRSWXNET | | Change Station

Elev 314 ft 42.82 °N, 71.32 °W | Updated 26 minutes ago

Overcast
Overcast
78 °F
Feels Like 80 °F
N
1
Wind Variable Wind from South
Gusts 3.0 mph

Today
High -- | Low -- °F
--% Chance of Precip.
Yesterday
High -- | Low -- °F
Precip. -- in
Pressure 29.98 in
Visibility 10.0 miles
Clouds Few 1400 ft
Scattered Clouds 7000 ft
Overcast 9500 ft
Heat Index 80 °F
Dew Point 72 °F
Humidity 82%
Rainfall in
Snow Depth Not available.
6:03 AM 7:29 PM
Waning Crescent, 34% visible
METAR KASH 261356Z 00000KT 10SM FEW014 SCT070 OVC095 24/21 A2996 RMK AO2 SLP152 T02440211
Pressure 29.98 in
Visibility 10.0 miles
Clouds Few 1400 ft
Scattered Clouds 7000 ft
Overcast 9500 ft
Heat Index 80 °F
Dew Point 72 °F
Humidity 82%
Rainfall in
Snow Depth Not available.
6:03 AM 7:29 PM
Waning Crescent, 34% visible
METAR KASH 261356Z 00000KT 10SM FEW014 SCT070 OVC095 24/21 A2996 RMK AO2 SLP152 T02440211

10-Day Weather Forecast

Almanac

Astronomy

Aug. 26, 2016 Rise Set
Actual Time
Civil Twilight
Nautical Twilight
Astronomical Twilight
Moon
Length of Visible Light
Length of Day
Tomorrow will be .
, % of the Moon is Illuminated

Today's Extremes

State Highs State Lows

Community

WunderPhotos

Upload Photos

1,935,089 photos uploaded!

WunderBlog® & News

Nearby

Air Quality

  Air Quality AQ Index Pollutant
Not available.

Snow Depth

Station Depth Elevation

Earthquake Activity

City Distance Mag. Time & Date
Minimum magnitude displayed is 2.5.

Coastal Water Temperatures

Place Temperature

Stations

Nearby Weather Stations

Station Location Temp. Windchill Dew Point Humidity Wind Precip. Elev Updated Type
                   

Watches & Warnings

There are currently no watches in effect.